sensor_id;sensor_type;location;lat;lon;timestamp;P1;durP1;ratioP1;P2;durP2;ratioP2
12585;SDS011;6358;50.760;0.282;2023-08-24T00:01:21;3.80;;;2.20;;
12585;SDS011;6358;50.760;0.282;2023-08-24T00:03:47;3.38;;;2.10;;
12585;SDS011;6358;50.760;0.282;2023-08-24T00:06:13;3.33;;;2.30;;
12585;SDS011;6358;50.760;0.282;2023-08-24T00:08:40;4.70;;;2.20;;
12585;SDS011;6358;50.760;0.282;2023-08-24T00:11:06;3.08;;;2.00;;
12585;SDS011;6358;50.760;0.282;2023-08-24T00:13:33;3.03;;;2.13;;
12585;SDS011;6358;50.760;0.282;2023-08-24T00:15:59;2.50;;;1.77;;
12585;SDS011;6358;50.760;0.282;2023-08-24T00:18:25;3.13;;;2.20;;
12585;SDS011;6358;50.760;0.282;2023-08-24T00:20:51;3.42;;;2.47;;
12585;SDS011;6358;50.760;0.282;2023-08-24T00:23:17;3.47;;;2.15;;
12585;SDS011;6358;50.760;0.282;2023-08-24T00:25:43;2.80;;;2.20;;
12585;SDS011;6358;50.760;0.282;2023-08-24T00:28:09;4.43;;;2.10;;
12585;SDS011;6358;50.760;0.282;2023-08-24T00:30:36;2.97;;;2.20;;
12585;SDS011;6358;50.760;0.282;2023-08-24T00:33:02;3.10;;;1.95;;
12585;SDS011;6358;50.760;0.282;2023-08-24T00:35:29;2.70;;;2.20;;
12585;SDS011;6358;50.760;0.282;2023-08-24T00:37:56;2.67;;;2.10;;
12585;SDS011;6358;50.760;0.282;2023-08-24T00:40:22;2.53;;;1.90;;
12585;SDS011;6358;50.760;0.282;2023-08-24T00:42:48;4.25;;;2.20;;
12585;SDS011;6358;50.760;0.282;2023-08-24T00:45:14;3.50;;;2.10;;
12585;SDS011;6358;50.760;0.282;2023-08-24T00:47:41;4.50;;;2.17;;
12585;SDS011;6358;50.760;0.282;2023-08-24T00:50:08;3.10;;;2.00;;
12585;SDS011;6358;50.760;0.282;2023-08-24T00:52:38;2.15;;;1.95;;
12585;SDS011;6358;50.760;0.282;2023-08-24T00:55:05;3.10;;;1.85;;
12585;SDS011;6358;50.760;0.282;2023-08-24T00:57:31;4.20;;;2.00;;
12585;SDS011;6358;50.760;0.282;2023-08-24T00:59:58;2.60;;;2.00;;
12585;SDS011;6358;50.760;0.282;2023-08-24T01:02:25;3.72;;;1.90;;
12585;SDS011;6358;50.760;0.282;2023-08-24T01:04:51;1.80;;;1.70;;
12585;SDS011;6358;50.760;0.282;2023-08-24T01:07:17;2.95;;;1.90;;
12585;SDS011;6358;50.760;0.282;2023-08-24T01:09:44;2.53;;;1.92;;
12585;SDS011;6358;50.760;0.282;2023-08-24T01:17:18;2.75;;;1.98;;
12585;SDS011;6358;50.760;0.282;2023-08-24T01:19:47;3.10;;;1.75;;
12585;SDS011;6358;50.760;0.282;2023-08-24T01:22:23;2.63;;;1.85;;
12585;SDS011;6358;50.760;0.282;2023-08-24T01:27:23;1.85;;;1.63;;
12585;SDS011;6358;50.760;0.282;2023-08-24T01:29:51;4.07;;;2.10;;
12585;SDS011;6358;50.760;0.282;2023-08-24T01:32:21;2.92;;;2.10;;
12585;SDS011;6358;50.760;0.282;2023-08-24T01:34:47;2.90;;;2.15;;
12585;SDS011;6358;50.760;0.282;2023-08-24T01:37:13;4.90;;;2.10;;
12585;SDS011;6358;50.760;0.282;2023-08-24T01:39:45;2.00;;;1.80;;
12585;SDS011;6358;50.760;0.282;2023-08-24T01:42:16;2.90;;;1.83;;
12585;SDS011;6358;50.760;0.282;2023-08-24T01:44:43;3.03;;;2.00;;
12585;SDS011;6358;50.760;0.282;2023-08-24T01:47:11;3.40;;;1.90;;
12585;SDS011;6358;50.760;0.282;2023-08-24T01:49:38;2.50;;;1.83;;
12585;SDS011;6358;50.760;0.282;2023-08-24T01:52:04;3.17;;;2.05;;
12585;SDS011;6358;50.760;0.282;2023-08-24T01:54:31;2.72;;;1.88;;
12585;SDS011;6358;50.760;0.282;2023-08-24T01:56:57;4.43;;;2.00;;
12585;SDS011;6358;50.760;0.282;2023-08-24T01:59:23;2.40;;;1.92;;
12585;SDS011;6358;50.760;0.282;2023-08-24T02:01:49;3.05;;;2.00;;
12585;SDS011;6358;50.760;0.282;2023-08-24T02:04:15;4.30;;;2.13;;
12585;SDS011;6358;50.760;0.282;2023-08-24T02:06:41;4.03;;;2.10;;
12585;SDS011;6358;50.760;0.282;2023-08-24T02:09:07;2.65;;;1.95;;
12585;SDS011;6358;50.760;0.282;2023-08-24T02:11:33;2.28;;;1.75;;
12585;SDS011;6358;50.760;0.282;2023-08-24T02:13:59;3.05;;;1.70;;
12585;SDS011;6358;50.760;0.282;2023-08-24T02:16:25;3.00;;;2.00;;
12585;SDS011;6358;50.760;0.282;2023-08-24T02:18:52;3.33;;;2.20;;
12585;SDS011;6358;50.760;0.282;2023-08-24T02:21:18;1.85;;;1.70;;
12585;SDS011;6358;50.760;0.282;2023-08-24T02:23:44;3.63;;;2.20;;
12585;SDS011;6358;50.760;0.282;2023-08-24T02:26:10;3.42;;;1.75;;
12585;SDS011;6358;50.760;0.282;2023-08-24T02:28:36;2.67;;;1.83;;
12585;SDS011;6358;50.760;0.282;2023-08-24T02:31:03;2.38;;;1.75;;
12585;SDS011;6358;50.760;0.282;2023-08-24T02:33:30;3.00;;;1.73;;
12585;SDS011;6358;50.760;0.282;2023-08-24T02:35:56;3.00;;;1.85;;
12585;SDS011;6358;50.760;0.282;2023-08-24T02:38:25;2.25;;;1.88;;
12585;SDS011;6358;50.760;0.282;2023-08-24T02:41:04;2.20;;;1.73;;
12585;SDS011;6358;50.760;0.282;2023-08-24T02:43:31;2.75;;;1.88;;
12585;SDS011;6358;50.760;0.282;2023-08-24T02:46:04;4.05;;;2.22;;
12585;SDS011;6358;50.760;0.282;2023-08-24T02:48:30;2.67;;;1.70;;
12585;SDS011;6358;50.760;0.282;2023-08-24T02:50:57;4.20;;;2.15;;
12585;SDS011;6358;50.760;0.282;2023-08-24T02:53:23;3.08;;;1.83;;
12585;SDS011;6358;50.760;0.282;2023-08-24T02:55:50;3.38;;;1.92;;
12585;SDS011;6358;50.760;0.282;2023-08-24T02:58:16;1.90;;;1.77;;
12585;SDS011;6358;50.760;0.282;2023-08-24T03:00:42;5.18;;;1.83;;
12585;SDS011;6358;50.760;0.282;2023-08-24T03:03:08;2.70;;;2.00;;
12585;SDS011;6358;50.760;0.282;2023-08-24T03:05:34;3.38;;;2.05;;
12585;SDS011;6358;50.760;0.282;2023-08-24T03:08:00;3.13;;;1.90;;
12585;SDS011;6358;50.760;0.282;2023-08-24T03:10:29;3.42;;;1.73;;
12585;SDS011;6358;50.760;0.282;2023-08-24T03:12:55;4.47;;;2.20;;
12585;SDS011;6358;50.760;0.282;2023-08-24T03:15:21;3.60;;;2.00;;
12585;SDS011;6358;50.760;0.282;2023-08-24T03:17:47;6.65;;;2.15;;
12585;SDS011;6358;50.760;0.282;2023-08-24T03:20:13;5.07;;;2.30;;
12585;SDS011;6358;50.760;0.282;2023-08-24T03:22:39;2.38;;;1.98;;
12585;SDS011;6358;50.760;0.282;2023-08-24T03:25:06;3.22;;;2.00;;
12585;SDS011;6358;50.760;0.282;2023-08-24T03:27:32;5.43;;;2.10;;
12585;SDS011;6358;50.760;0.282;2023-08-24T03:29:58;3.28;;;2.03;;
12585;SDS011;6358;50.760;0.282;2023-08-24T03:32:24;3.30;;;1.85;;
12585;SDS011;6358;50.760;0.282;2023-08-24T03:34:50;3.85;;;2.20;;
12585;SDS011;6358;50.760;0.282;2023-08-24T03:37:16;3.67;;;1.88;;
12585;SDS011;6358;50.760;0.282;2023-08-24T03:39:42;3.65;;;2.10;;
12585;SDS011;6358;50.760;0.282;2023-08-24T03:42:08;4.90;;;2.20;;
12585;SDS011;6358;50.760;0.282;2023-08-24T03:44:34;3.97;;;2.15;;
12585;SDS011;6358;50.760;0.282;2023-08-24T03:47:01;2.95;;;2.22;;
12585;SDS011;6358;50.760;0.282;2023-08-24T03:49:27;3.35;;;2.60;;
12585;SDS011;6358;50.760;0.282;2023-08-24T03:51:53;2.72;;;1.95;;
12585;SDS011;6358;50.760;0.282;2023-08-24T03:54:19;3.85;;;2.35;;
12585;SDS011;6358;50.760;0.282;2023-08-24T03:56:45;4.80;;;2.45;;
12585;SDS011;6358;50.760;0.282;2023-08-24T03:59:12;4.93;;;2.10;;
12585;SDS011;6358;50.760;0.282;2023-08-24T04:01:38;3.15;;;2.30;;
12585;SDS011;6358;50.760;0.282;2023-08-24T04:04:04;3.63;;;2.10;;
12585;SDS011;6358;50.760;0.282;2023-08-24T04:06:30;3.05;;;2.15;;
12585;SDS011;6358;50.760;0.282;2023-08-24T04:08:56;3.78;;;2.25;;
12585;SDS011;6358;50.760;0.282;2023-08-24T04:11:22;4.75;;;2.30;;
12585;SDS011;6358;50.760;0.282;2023-08-24T04:13:48;3.03;;;2.10;;
12585;SDS011;6358;50.760;0.282;2023-08-24T04:16:15;3.78;;;2.30;;
12585;SDS011;6358;50.760;0.282;2023-08-24T04:18:41;2.38;;;2.00;;
12585;SDS011;6358;50.760;0.282;2023-08-24T04:21:07;5.15;;;2.22;;
12585;SDS011;6358;50.760;0.282;2023-08-24T04:23:33;4.65;;;2.20;;
12585;SDS011;6358;50.760;0.282;2023-08-24T04:25:59;4.22;;;2.67;;
12585;SDS011;6358;50.760;0.282;2023-08-24T04:28:25;3.88;;;2.45;;
12585;SDS011;6358;50.760;0.282;2023-08-24T04:30:54;2.55;;;2.20;;
12585;SDS011;6358;50.760;0.282;2023-08-24T04:33:21;3.95;;;2.13;;
12585;SDS011;6358;50.760;0.282;2023-08-24T04:35:48;2.78;;;2.00;;
12585;SDS011;6358;50.760;0.282;2023-08-24T04:38:14;2.55;;;2.13;;
12585;SDS011;6358;50.760;0.282;2023-08-24T04:40:48;3.53;;;2.42;;
12585;SDS011;6358;50.760;0.282;2023-08-24T04:43:15;3.72;;;2.08;;
12585;SDS011;6358;50.760;0.282;2023-08-24T04:45:41;5.00;;;2.20;;
12585;SDS011;6358;50.760;0.282;2023-08-24T04:48:07;3.10;;;2.20;;
12585;SDS011;6358;50.760;0.282;2023-08-24T04:50:33;4.03;;;2.20;;
12585;SDS011;6358;50.760;0.282;2023-08-24T04:52:59;4.35;;;2.13;;
12585;SDS011;6358;50.760;0.282;2023-08-24T04:55:25;2.92;;;2.30;;
12585;SDS011;6358;50.760;0.282;2023-08-24T04:57:51;3.10;;;2.10;;
12585;SDS011;6358;50.760;0.282;2023-08-24T05:00:17;4.90;;;2.00;;
12585;SDS011;6358;50.760;0.282;2023-08-24T05:02:44;4.35;;;2.22;;
12585;SDS011;6358;50.760;0.282;2023-08-24T05:05:10;2.92;;;2.00;;
12585;SDS011;6358;50.760;0.282;2023-08-24T05:07:40;3.00;;;2.20;;
12585;SDS011;6358;50.760;0.282;2023-08-24T05:10:06;3.95;;;2.15;;
12585;SDS011;6358;50.760;0.282;2023-08-24T05:12:32;3.60;;;2.80;;
12585;SDS011;6358;50.760;0.282;2023-08-24T05:15:03;3.92;;;2.42;;
12585;SDS011;6358;50.760;0.282;2023-08-24T05:17:29;3.20;;;2.20;;
12585;SDS011;6358;50.760;0.282;2023-08-24T05:19:57;4.13;;;2.20;;
12585;SDS011;6358;50.760;0.282;2023-08-24T05:22:23;5.63;;;2.40;;
12585;SDS011;6358;50.760;0.282;2023-08-24T05:24:49;3.45;;;2.25;;
12585;SDS011;6358;50.760;0.282;2023-08-24T05:27:15;3.08;;;2.30;;
12585;SDS011;6358;50.760;0.282;2023-08-24T05:29:41;3.03;;;2.22;;
12585;SDS011;6358;50.760;0.282;2023-08-24T05:32:08;3.72;;;2.40;;
12585;SDS011;6358;50.760;0.282;2023-08-24T05:34:34;3.60;;;2.10;;
12585;SDS011;6358;50.760;0.282;2023-08-24T05:37:00;3.58;;;2.28;;
12585;SDS011;6358;50.760;0.282;2023-08-24T05:39:26;2.72;;;2.17;;
12585;SDS011;6358;50.760;0.282;2023-08-24T05:41:52;5.05;;;2.13;;
12585;SDS011;6358;50.760;0.282;2023-08-24T05:44:19;3.35;;;2.25;;
12585;SDS011;6358;50.760;0.282;2023-08-24T05:46:46;2.78;;;1.95;;
12585;SDS011;6358;50.760;0.282;2023-08-24T05:49:12;3.83;;;2.10;;
12585;SDS011;6358;50.760;0.282;2023-08-24T05:51:38;2.92;;;2.20;;
12585;SDS011;6358;50.760;0.282;2023-08-24T05:54:04;2.88;;;2.00;;
12585;SDS011;6358;50.760;0.282;2023-08-24T05:56:31;4.15;;;2.50;;
12585;SDS011;6358;50.760;0.282;2023-08-24T05:58:59;2.95;;;2.10;;
12585;SDS011;6358;50.760;0.282;2023-08-24T06:01:26;2.65;;;1.92;;
12585;SDS011;6358;50.760;0.282;2023-08-24T06:03:52;2.97;;;2.30;;
12585;SDS011;6358;50.760;0.282;2023-08-24T06:06:18;2.95;;;2.20;;
12585;SDS011;6358;50.760;0.282;2023-08-24T06:08:44;3.13;;;2.10;;
12585;SDS011;6358;50.760;0.282;2023-08-24T06:11:10;2.95;;;2.10;;
12585;SDS011;6358;50.760;0.282;2023-08-24T06:13:36;3.63;;;2.45;;
12585;SDS011;6358;50.760;0.282;2023-08-24T06:16:02;3.83;;;2.30;;
12585;SDS011;6358;50.760;0.282;2023-08-24T06:18:28;2.38;;;2.10;;
12585;SDS011;6358;50.760;0.282;2023-08-24T06:20:55;3.97;;;2.45;;
12585;SDS011;6358;50.760;0.282;2023-08-24T06:23:21;2.80;;;2.15;;
12585;SDS011;6358;50.760;0.282;2023-08-24T06:25:47;3.65;;;2.28;;
12585;SDS011;6358;50.760;0.282;2023-08-24T06:28:13;3.08;;;2.45;;
12585;SDS011;6358;50.760;0.282;2023-08-24T06:30:40;3.55;;;2.60;;
12585;SDS011;6358;50.760;0.282;2023-08-24T06:33:08;4.85;;;2.70;;
12585;SDS011;6358;50.760;0.282;2023-08-24T06:35:36;3.10;;;2.55;;
12585;SDS011;6358;50.760;0.282;2023-08-24T06:38:02;3.78;;;2.78;;
12585;SDS011;6358;50.760;0.282;2023-08-24T06:40:29;3.10;;;2.22;;
12585;SDS011;6358;50.760;0.282;2023-08-24T06:42:56;3.80;;;2.78;;
12585;SDS011;6358;50.760;0.282;2023-08-24T06:45:22;3.67;;;2.75;;
12585;SDS011;6358;50.760;0.282;2023-08-24T06:47:48;3.92;;;2.85;;
12585;SDS011;6358;50.760;0.282;2023-08-24T06:50:14;4.80;;;2.78;;
12585;SDS011;6358;50.760;0.282;2023-08-24T06:52:41;4.35;;;3.00;;
12585;SDS011;6358;50.760;0.282;2023-08-24T06:55:10;3.85;;;2.72;;
12585;SDS011;6358;50.760;0.282;2023-08-24T06:57:37;4.63;;;3.10;;
12585;SDS011;6358;50.760;0.282;2023-08-24T07:00:03;3.55;;;2.75;;
12585;SDS011;6358;50.760;0.282;2023-08-24T07:02:34;4.15;;;2.67;;
12585;SDS011;6358;50.760;0.282;2023-08-24T07:05:01;4.20;;;2.83;;
12585;SDS011;6358;50.760;0.282;2023-08-24T07:07:30;3.38;;;2.75;;
12585;SDS011;6358;50.760;0.282;2023-08-24T07:09:56;3.38;;;2.72;;
12585;SDS011;6358;50.760;0.282;2023-08-24T07:12:22;3.65;;;2.50;;
12585;SDS011;6358;50.760;0.282;2023-08-24T07:14:48;4.50;;;2.72;;
12585;SDS011;6358;50.760;0.282;2023-08-24T07:17:14;4.57;;;2.70;;
12585;SDS011;6358;50.760;0.282;2023-08-24T07:19:40;5.53;;;2.75;;
12585;SDS011;6358;50.760;0.282;2023-08-24T07:22:06;3.33;;;2.60;;
12585;SDS011;6358;50.760;0.282;2023-08-24T07:24:33;3.50;;;2.60;;
12585;SDS011;6358;50.760;0.282;2023-08-24T07:27:01;3.78;;;2.40;;
12585;SDS011;6358;50.760;0.282;2023-08-24T07:29:28;3.58;;;2.60;;
12585;SDS011;6358;50.760;0.282;2023-08-24T07:31:55;3.58;;;2.42;;
12585;SDS011;6358;50.760;0.282;2023-08-24T07:34:21;4.18;;;2.83;;
12585;SDS011;6358;50.760;0.282;2023-08-24T07:36:48;5.72;;;3.45;;
12585;SDS011;6358;50.760;0.282;2023-08-24T07:39:14;3.33;;;2.80;;
12585;SDS011;6358;50.760;0.282;2023-08-24T07:41:41;4.50;;;3.05;;
12585;SDS011;6358;50.760;0.282;2023-08-24T07:44:08;4.05;;;2.85;;
12585;SDS011;6358;50.760;0.282;2023-08-24T07:46:34;5.57;;;3.15;;
12585;SDS011;6358;50.760;0.282;2023-08-24T07:49:00;5.32;;;3.90;;
12585;SDS011;6358;50.760;0.282;2023-08-24T07:51:26;8.52;;;5.35;;
12585;SDS011;6358;50.760;0.282;2023-08-24T07:53:53;15.82;;;11.18;;
12585;SDS011;6358;50.760;0.282;2023-08-24T07:56:19;11.85;;;9.52;;
12585;SDS011;6358;50.760;0.282;2023-08-24T07:58:45;11.77;;;7.82;;
12585;SDS011;6358;50.760;0.282;2023-08-24T08:01:11;10.30;;;6.93;;
12585;SDS011;6358;50.760;0.282;2023-08-24T08:03:37;7.35;;;6.03;;
12585;SDS011;6358;50.760;0.282;2023-08-24T08:06:03;6.15;;;5.35;;
12585;SDS011;6358;50.760;0.282;2023-08-24T08:08:30;5.63;;;5.05;;
12585;SDS011;6358;50.760;0.282;2023-08-24T08:10:59;8.55;;;6.28;;
12585;SDS011;6358;50.760;0.282;2023-08-24T08:13:26;7.32;;;5.93;;
12585;SDS011;6358;50.760;0.282;2023-08-24T08:15:53;6.00;;;4.95;;
12585;SDS011;6358;50.760;0.282;2023-08-24T08:18:19;7.07;;;4.80;;
12585;SDS011;6358;50.760;0.282;2023-08-24T08:20:45;4.97;;;3.72;;
12585;SDS011;6358;50.760;0.282;2023-08-24T08:23:11;5.28;;;3.70;;
12585;SDS011;6358;50.760;0.282;2023-08-24T08:25:38;4.85;;;3.70;;
12585;SDS011;6358;50.760;0.282;2023-08-24T08:28:07;5.35;;;3.90;;
12585;SDS011;6358;50.760;0.282;2023-08-24T08:30:33;5.13;;;3.65;;
12585;SDS011;6358;50.760;0.282;2023-08-24T08:32:59;4.55;;;3.80;;
12585;SDS011;6358;50.760;0.282;2023-08-24T08:35:26;5.00;;;3.35;;
12585;SDS011;6358;50.760;0.282;2023-08-24T08:37:52;3.90;;;3.20;;
12585;SDS011;6358;50.760;0.282;2023-08-24T08:40:18;6.55;;;3.35;;
12585;SDS011;6358;50.760;0.282;2023-08-24T08:42:47;3.50;;;2.90;;
12585;SDS011;6358;50.760;0.282;2023-08-24T08:45:13;3.33;;;2.90;;
12585;SDS011;6358;50.760;0.282;2023-08-24T08:47:39;4.88;;;3.13;;
12585;SDS011;6358;50.760;0.282;2023-08-24T08:50:06;4.65;;;3.10;;
12585;SDS011;6358;50.760;0.282;2023-08-24T08:52:32;3.30;;;2.97;;
12585;SDS011;6358;50.760;0.282;2023-08-24T08:54:59;3.30;;;3.00;;
12585;SDS011;6358;50.760;0.282;2023-08-24T08:57:25;3.78;;;3.00;;
12585;SDS011;6358;50.760;0.282;2023-08-24T08:59:52;3.13;;;2.60;;
12585;SDS011;6358;50.760;0.282;2023-08-24T09:02:20;3.13;;;2.55;;
12585;SDS011;6358;50.760;0.282;2023-08-24T09:04:47;2.75;;;2.47;;
12585;SDS011;6358;50.760;0.282;2023-08-24T09:07:14;2.78;;;2.53;;
12585;SDS011;6358;50.760;0.282;2023-08-24T09:09:40;3.30;;;2.60;;
12585;SDS011;6358;50.760;0.282;2023-08-24T09:12:07;3.88;;;2.50;;
12585;SDS011;6358;50.760;0.282;2023-08-24T09:14:33;2.65;;;2.45;;
12585;SDS011;6358;50.760;0.282;2023-08-24T09:17:00;4.53;;;2.80;;
12585;SDS011;6358;50.760;0.282;2023-08-24T09:19:29;3.00;;;2.42;;
12585;SDS011;6358;50.760;0.282;2023-08-24T09:21:59;2.90;;;2.60;;
12585;SDS011;6358;50.760;0.282;2023-08-24T09:24:29;2.53;;;2.33;;
12585;SDS011;6358;50.760;0.282;2023-08-24T09:26:57;3.65;;;2.70;;
12585;SDS011;6358;50.760;0.282;2023-08-24T09:29:23;3.47;;;2.60;;
12585;SDS011;6358;50.760;0.282;2023-08-24T09:31:52;3.88;;;2.50;;
12585;SDS011;6358;50.760;0.282;2023-08-24T09:34:19;3.78;;;2.38;;
12585;SDS011;6358;50.760;0.282;2023-08-24T09:36:45;3.78;;;2.55;;
12585;SDS011;6358;50.760;0.282;2023-08-24T09:39:12;5.07;;;2.42;;
12585;SDS011;6358;50.760;0.282;2023-08-24T09:41:43;4.72;;;2.70;;
12585;SDS011;6358;50.760;0.282;2023-08-24T09:44:09;4.43;;;2.65;;
12585;SDS011;6358;50.760;0.282;2023-08-24T09:46:37;3.95;;;2.60;;
12585;SDS011;6358;50.760;0.282;2023-08-24T09:49:04;3.10;;;2.50;;
12585;SDS011;6358;50.760;0.282;2023-08-24T09:51:30;3.67;;;2.40;;
12585;SDS011;6358;50.760;0.282;2023-08-24T09:53:57;3.72;;;2.63;;
12585;SDS011;6358;50.760;0.282;2023-08-24T09:56:28;2.72;;;2.33;;
12585;SDS011;6358;50.760;0.282;2023-08-24T09:58:54;2.78;;;2.40;;
12585;SDS011;6358;50.760;0.282;2023-08-24T10:01:20;4.13;;;2.60;;
12585;SDS011;6358;50.760;0.282;2023-08-24T10:03:48;4.97;;;2.80;;
12585;SDS011;6358;50.760;0.282;2023-08-24T10:06:17;2.88;;;2.38;;
12585;SDS011;6358;50.760;0.282;2023-08-24T10:08:47;3.90;;;2.30;;
12585;SDS011;6358;50.760;0.282;2023-08-24T10:11:17;2.85;;;2.30;;
12585;SDS011;6358;50.760;0.282;2023-08-24T10:13:53;4.65;;;2.45;;
12585;SDS011;6358;50.760;0.282;2023-08-24T10:16:22;3.50;;;2.40;;
12585;SDS011;6358;50.760;0.282;2023-08-24T10:18:49;3.38;;;2.40;;
12585;SDS011;6358;50.760;0.282;2023-08-24T10:21:16;3.10;;;2.42;;
12585;SDS011;6358;50.760;0.282;2023-08-24T10:23:43;2.60;;;2.28;;
12585;SDS011;6358;50.760;0.282;2023-08-24T10:26:11;2.80;;;2.50;;
12585;SDS011;6358;50.760;0.282;2023-08-24T10:28:38;2.60;;;2.40;;
12585;SDS011;6358;50.760;0.282;2023-08-24T10:31:04;4.45;;;2.45;;
12585;SDS011;6358;50.760;0.282;2023-08-24T10:33:31;2.75;;;2.55;;
12585;SDS011;6358;50.760;0.282;2023-08-24T10:35:59;4.28;;;2.38;;
12585;SDS011;6358;50.760;0.282;2023-08-24T10:38:25;2.70;;;2.33;;
12585;SDS011;6358;50.760;0.282;2023-08-24T10:40:52;2.92;;;2.30;;
12585;SDS011;6358;50.760;0.282;2023-08-24T10:43:19;3.67;;;2.75;;
12585;SDS011;6358;50.760;0.282;2023-08-24T10:45:55;3.70;;;2.22;;
12585;SDS011;6358;50.760;0.282;2023-08-24T10:48:22;3.92;;;2.78;;
12585;SDS011;6358;50.760;0.282;2023-08-24T10:53:40;2.63;;;2.13;;
12585;SDS011;6358;50.760;0.282;2023-08-24T10:56:13;2.78;;;2.30;;
12585;SDS011;6358;50.760;0.282;2023-08-24T10:58:39;3.40;;;2.42;;
12585;SDS011;6358;50.760;0.282;2023-08-24T11:01:06;3.47;;;2.35;;
12585;SDS011;6358;50.760;0.282;2023-08-24T11:03:32;3.13;;;2.38;;
12585;SDS011;6358;50.760;0.282;2023-08-24T11:05:58;3.58;;;2.53;;
12585;SDS011;6358;50.760;0.282;2023-08-24T11:08:43;3.92;;;2.40;;
12585;SDS011;6358;50.760;0.282;2023-08-24T11:11:22;3.33;;;2.50;;
12585;SDS011;6358;50.760;0.282;2023-08-24T11:16:38;3.45;;;2.80;;
12585;SDS011;6358;50.760;0.282;2023-08-24T11:19:04;4.93;;;2.70;;
12585;SDS011;6358;50.760;0.282;2023-08-24T11:21:33;4.90;;;2.60;;
12585;SDS011;6358;50.760;0.282;2023-08-24T11:24:00;3.20;;;2.58;;
12585;SDS011;6358;50.760;0.282;2023-08-24T11:26:26;3.60;;;2.53;;
12585;SDS011;6358;50.760;0.282;2023-08-24T11:28:52;2.88;;;2.38;;
12585;SDS011;6358;50.760;0.282;2023-08-24T11:31:19;4.05;;;2.42;;
12585;SDS011;6358;50.760;0.282;2023-08-24T11:33:46;3.08;;;2.42;;
12585;SDS011;6358;50.760;0.282;2023-08-24T11:36:12;3.35;;;2.67;;
12585;SDS011;6358;50.760;0.282;2023-08-24T11:38:42;5.53;;;2.65;;
12585;SDS011;6358;50.760;0.282;2023-08-24T11:41:12;2.92;;;2.38;;
12585;SDS011;6358;50.760;0.282;2023-08-24T11:43:38;4.75;;;2.40;;
12585;SDS011;6358;50.760;0.282;2023-08-24T11:46:04;4.68;;;2.90;;
12585;SDS011;6358;50.760;0.282;2023-08-24T11:48:31;3.88;;;2.55;;
12585;SDS011;6358;50.760;0.282;2023-08-24T11:50:57;3.25;;;2.65;;
12585;SDS011;6358;50.760;0.282;2023-08-24T11:53:23;4.55;;;2.65;;
12585;SDS011;6358;50.760;0.282;2023-08-24T11:55:53;3.80;;;2.60;;
12585;SDS011;6358;50.760;0.282;2023-08-24T11:58:19;3.83;;;2.78;;
12585;SDS011;6358;50.760;0.282;2023-08-24T12:00:45;2.78;;;2.50;;
12585;SDS011;6358;50.760;0.282;2023-08-24T12:03:12;3.13;;;2.53;;
12585;SDS011;6358;50.760;0.282;2023-08-24T12:05:38;2.65;;;2.45;;
12585;SDS011;6358;50.760;0.282;2023-08-24T12:08:05;3.67;;;2.65;;
12585;SDS011;6358;50.760;0.282;2023-08-24T12:10:31;2.53;;;2.30;;
12585;SDS011;6358;50.760;0.282;2023-08-24T12:13:04;2.92;;;2.30;;
12585;SDS011;6358;50.760;0.282;2023-08-24T12:15:30;6.00;;;2.80;;
12585;SDS011;6358;50.760;0.282;2023-08-24T12:18:21;2.92;;;2.60;;
12585;SDS011;6358;50.760;0.282;2023-08-24T12:20:46;4.25;;;2.58;;
12585;SDS011;6358;50.760;0.282;2023-08-24T12:23:13;3.00;;;2.60;;
12585;SDS011;6358;50.760;0.282;2023-08-24T12:25:43;3.53;;;2.40;;
12585;SDS011;6358;50.760;0.282;2023-08-24T12:28:13;2.92;;;2.60;;
12585;SDS011;6358;50.760;0.282;2023-08-24T12:30:43;2.92;;;2.42;;
12585;SDS011;6358;50.760;0.282;2023-08-24T12:33:15;3.00;;;2.33;;
12585;SDS011;6358;50.760;0.282;2023-08-24T12:35:46;2.60;;;2.40;;
12585;SDS011;6358;50.760;0.282;2023-08-24T12:38:13;3.08;;;2.55;;
12585;SDS011;6358;50.760;0.282;2023-08-24T12:40:39;2.88;;;2.47;;
12585;SDS011;6358;50.760;0.282;2023-08-24T12:43:05;2.80;;;2.50;;
12585;SDS011;6358;50.760;0.282;2023-08-24T12:45:31;2.70;;;2.50;;
12585;SDS011;6358;50.760;0.282;2023-08-24T12:47:57;3.65;;;2.58;;
12585;SDS011;6358;50.760;0.282;2023-08-24T12:50:23;2.45;;;2.25;;
12585;SDS011;6358;50.760;0.282;2023-08-24T12:52:49;3.00;;;2.20;;
12585;SDS011;6358;50.760;0.282;2023-08-24T12:55:20;2.42;;;2.03;;
12585;SDS011;6358;50.760;0.282;2023-08-24T12:57:46;3.22;;;2.30;;
12585;SDS011;6358;50.760;0.282;2023-08-24T13:00:13;2.47;;;2.28;;
12585;SDS011;6358;50.760;0.282;2023-08-24T13:02:39;2.42;;;2.17;;
12585;SDS011;6358;50.760;0.282;2023-08-24T13:05:06;3.08;;;2.25;;
12585;SDS011;6358;50.760;0.282;2023-08-24T13:07:33;3.20;;;2.22;;
12585;SDS011;6358;50.760;0.282;2023-08-24T13:09:59;2.90;;;2.15;;
12585;SDS011;6358;50.760;0.282;2023-08-24T13:12:25;2.00;;;1.88;;
12585;SDS011;6358;50.760;0.282;2023-08-24T13:14:51;2.70;;;2.17;;
12585;SDS011;6358;50.760;0.282;2023-08-24T13:17:17;2.58;;;2.10;;
12585;SDS011;6358;50.760;0.282;2023-08-24T13:19:43;3.20;;;2.28;;
12585;SDS011;6358;50.760;0.282;2023-08-24T13:22:10;2.92;;;2.17;;
12585;SDS011;6358;50.760;0.282;2023-08-24T13:24:36;3.75;;;2.38;;
12585;SDS011;6358;50.760;0.282;2023-08-24T13:27:04;2.63;;;2.20;;
12585;SDS011;6358;50.760;0.282;2023-08-24T13:29:35;2.63;;;2.13;;
12585;SDS011;6358;50.760;0.282;2023-08-24T13:32:01;2.70;;;2.10;;
12585;SDS011;6358;50.760;0.282;2023-08-24T13:34:27;3.08;;;2.08;;
12585;SDS011;6358;50.760;0.282;2023-08-24T13:36:53;3.40;;;2.10;;
12585;SDS011;6358;50.760;0.282;2023-08-24T13:39:19;4.35;;;2.47;;
12585;SDS011;6358;50.760;0.282;2023-08-24T13:41:45;4.25;;;2.55;;
12585;SDS011;6358;50.760;0.282;2023-08-24T13:44:12;4.43;;;2.50;;
12585;SDS011;6358;50.760;0.282;2023-08-24T13:46:38;3.60;;;2.42;;
12585;SDS011;6358;50.760;0.282;2023-08-24T13:49:04;3.45;;;2.42;;
12585;SDS011;6358;50.760;0.282;2023-08-24T13:51:30;4.60;;;2.72;;
12585;SDS011;6358;50.760;0.282;2023-08-24T13:53:56;4.15;;;2.63;;
12585;SDS011;6358;50.760;0.282;2023-08-24T13:56:23;4.22;;;2.80;;
12585;SDS011;6358;50.760;0.282;2023-08-24T13:58:49;6.32;;;2.90;;
12585;SDS011;6358;50.760;0.282;2023-08-24T14:01:15;3.45;;;2.45;;
12585;SDS011;6358;50.760;0.282;2023-08-24T14:03:41;4.00;;;2.42;;
12585;SDS011;6358;50.760;0.282;2023-08-24T14:06:08;3.63;;;2.60;;
12585;SDS011;6358;50.760;0.282;2023-08-24T14:08:36;4.13;;;2.80;;
12585;SDS011;6358;50.760;0.282;2023-08-24T14:11:02;4.40;;;2.70;;
12585;SDS011;6358;50.760;0.282;2023-08-24T14:13:28;3.13;;;2.75;;
12585;SDS011;6358;50.760;0.282;2023-08-24T14:15:56;3.88;;;3.13;;
12585;SDS011;6358;50.760;0.282;2023-08-24T14:18:22;3.60;;;2.65;;
12585;SDS011;6358;50.760;0.282;2023-08-24T14:20:48;4.10;;;2.30;;
12585;SDS011;6358;50.760;0.282;2023-08-24T14:23:14;4.80;;;2.83;;
12585;SDS011;6358;50.760;0.282;2023-08-24T14:25:40;3.95;;;3.00;;
12585;SDS011;6358;50.760;0.282;2023-08-24T14:28:06;3.25;;;2.60;;
12585;SDS011;6358;50.760;0.282;2023-08-24T14:30:33;4.13;;;2.70;;
12585;SDS011;6358;50.760;0.282;2023-08-24T14:32:59;3.30;;;2.40;;
12585;SDS011;6358;50.760;0.282;2023-08-24T14:35:25;4.53;;;2.85;;
12585;SDS011;6358;50.760;0.282;2023-08-24T14:37:52;3.17;;;2.45;;
12585;SDS011;6358;50.760;0.282;2023-08-24T14:40:18;2.85;;;2.15;;
12585;SDS011;6358;50.760;0.282;2023-08-24T14:42:45;3.08;;;2.08;;
12585;SDS011;6358;50.760;0.282;2023-08-24T14:45:14;3.75;;;2.33;;
12585;SDS011;6358;50.760;0.282;2023-08-24T14:47:40;2.13;;;1.80;;
12585;SDS011;6358;50.760;0.282;2023-08-24T14:50:06;2.30;;;2.05;;
12585;SDS011;6358;50.760;0.282;2023-08-24T14:52:32;2.25;;;2.05;;
12585;SDS011;6358;50.760;0.282;2023-08-24T14:54:58;2.97;;;2.20;;
12585;SDS011;6358;50.760;0.282;2023-08-24T14:57:24;2.83;;;2.38;;
12585;SDS011;6358;50.760;0.282;2023-08-24T14:59:50;2.20;;;2.00;;
12585;SDS011;6358;50.760;0.282;2023-08-24T15:02:16;2.67;;;2.20;;
12585;SDS011;6358;50.760;0.282;2023-08-24T15:04:43;3.38;;;2.20;;
12585;SDS011;6358;50.760;0.282;2023-08-24T15:07:09;2.92;;;1.88;;
12585;SDS011;6358;50.760;0.282;2023-08-24T15:09:36;3.65;;;2.20;;
12585;SDS011;6358;50.760;0.282;2023-08-24T15:12:02;6.88;;;2.85;;